Time;durP1;ratioP1;P1;durP2;ratioP2;P2;SDS_P1;SDS_P2;PMS_P1;PMS_P2;Temp;Humidity;BMP_temperature;BMP_pressure;BME280_temperature;BME280_humidity;BME280_pressure;Samples;Min_cycle;Max_cycle;Signal;HPM_P1;HPM_P2
2022/12/26 00:01:52;;;;;;;118.18;53.17;;;;;;;4.00;75.77;98547.59;5030104;28;20059;-68
2022/12/26 00:04:17;;;;;;;104.03;51.50;;;;;;;4.02;76.47;98537.31;5017268;28;20065;-69
2022/12/26 00:06:43;;;;;;;93.63;47.88;;;;;;;4.07;75.65;98547.44;5004702;28;20049;-69
2022/12/26 00:09:08;;;;;;;94.68;47.40;;;;;;;4.11;76.21;98559.41;5077331;28;20385;-69
2022/12/26 00:11:34;;;;;;;100.07;44.63;;;;;;;4.14;75.88;98554.31;5039472;28;20060;-68
2022/12/26 00:14:09;;;;;;;100.07;45.92;;;;;;;4.18;75.90;98554.59;5037994;28;20028;-68
2022/12/26 00:16:35;;;;;;;94.30;46.38;;;;;;;4.23;75.71;98545.72;5029096;28;20077;-67
2022/12/26 00:19:02;;;;;;;103.47;47.35;;;;;;;4.26;76.00;98540.59;5058361;28;20028;-68
2022/12/26 00:21:28;;;;;;;93.97;44.25;;;;;;;4.28;76.28;98543.88;5038520;28;20446;-67
2022/12/26 00:23:56;;;;;;;78.78;38.58;;;;;;;4.34;76.47;98543.97;5033555;28;20077;-67
2022/12/26 00:26:23;;;;;;;66.88;34.03;;;;;;;4.38;76.06;98542.38;5029052;28;20034;-68
2022/12/26 00:28:49;;;;;;;70.20;35.60;;;;;;;4.41;76.63;98542.69;5060923;28;20036;-68
2022/12/26 00:31:23;;;;;;;67.50;34.97;;;;;;;4.43;76.24;98540.53;5056543;28;20026;-68
2022/12/26 00:33:49;;;;;;;71.78;36.30;;;;;;;4.46;76.07;98550.88;5032964;28;20030;-67
2022/12/26 00:36:23;;;;;;;71.53;35.70;;;;;;;4.48;76.11;98542.50;5069783;28;20032;-67
2022/12/26 00:38:49;;;;;;;68.75;35.65;;;;;;;4.52;75.86;98551.75;5033703;28;20030;-68
2022/12/26 00:41:16;;;;;;;72.13;34.47;;;;;;;4.56;76.49;98546.66;5031634;28;20105;-67
2022/12/26 00:43:42;;;;;;;69.38;33.45;;;;;;;4.59;76.08;98535.28;5032343;28;20488;-67
2022/12/26 00:46:08;;;;;;;66.53;34.53;;;;;;;4.62;76.50;98540.22;5025986;28;20019;-68
2022/12/26 00:48:34;;;;;;;64.97;30.60;;;;;;;4.67;76.43;98532.13;5047166;28;20016;-68
2022/12/26 00:51:00;;;;;;;62.60;31.30;;;;;;;4.72;77.07;98531.34;5029226;28;20077;-68
2022/12/26 00:53:26;;;;;;;56.90;28.98;;;;;;;4.76;76.75;98516.97;5045312;28;20052;-68
2022/12/26 00:55:52;;;;;;;54.03;27.95;;;;;;;4.79;76.87;98518.38;5033954;28;20451;-68
2022/12/26 00:58:18;;;;;;;55.83;27.52;;;;;;;4.86;76.77;98520.88;5002543;28;20159;-68
2022/12/26 01:00:44;;;;;;;54.47;28.13;;;;;;;4.89;76.65;98518.44;5008023;28;20023;-68
2022/12/26 01:03:10;;;;;;;53.97;26.60;;;;;;;4.95;76.86;98513.06;5002864;28;20437;-68
2022/12/26 01:05:41;;;;;;;47.88;25.48;;;;;;;4.98;76.88;98518.81;5009829;28;20028;-68
2022/12/26 01:08:06;;;;;;;50.95;26.25;;;;;;;5.03;77.06;98513.44;4999429;28;20493;-67
2022/12/26 01:10:31;;;;;;;48.17;24.92;;;;;;;5.06;76.96;98512.91;5015498;28;20062;-68
2022/12/26 01:12:57;;;;;;;48.03;24.95;;;;;;;5.10;77.22;98532.25;5015216;28;20035;-67
2022/12/26 01:15:22;;;;;;;46.13;23.10;;;;;;;5.16;76.90;98522.22;5014881;28;20080;-68
2022/12/26 01:17:47;;;;;;;46.15;23.33;;;;;;;5.20;76.90;98509.75;5019120;28;20032;-67
2022/12/26 01:20:13;;;;;;;45.95;23.85;;;;;;;5.24;76.89;98493.75;5038325;28;20035;-68
2022/12/26 01:22:38;;;;;;;47.60;26.55;;;;;;;5.27;76.75;98495.94;5022164;28;20030;-67
2022/12/26 01:25:07;;;;;;;48.47;25.25;;;;;;;5.28;76.89;98509.28;5047701;28;20026;-67
2022/12/26 01:27:32;;;;;;;46.10;24.08;;;;;;;5.31;76.86;98518.78;5029733;28;20042;-67
2022/12/26 01:29:58;;;;;;;45.88;23.90;;;;;;;5.30;77.07;98520.72;5031963;28;20028;-68
2022/12/26 01:32:23;;;;;;;43.92;23.17;;;;;;;5.32;76.91;98523.16;5032340;28;20015;-67
2022/12/26 01:34:50;;;;;;;45.70;22.02;;;;;;;5.34;76.58;98530.00;5034185;28;20049;-68
2022/12/26 01:37:16;;;;;;;36.65;20.70;;;;;;;5.36;77.16;98518.84;5037731;28;20066;-65
2022/12/26 01:39:41;;;;;;;38.20;17.63;;;;;;;5.41;76.96;98521.59;5063049;28;20216;-66
2022/12/26 01:42:16;;;;;;;37.35;18.10;;;;;;;5.46;77.21;98513.47;5049496;28;20118;-67
2022/12/26 01:45:19;;;;;;;31.33;15.63;;;;;;;5.54;77.15;98506.72;5046098;28;20106;-67
2022/12/26 01:48:03;;;;;;;30.92;16.55;;;;;;;5.62;77.35;98514.41;5031389;28;20087;-67
2022/12/26 01:50:36;;;;;;;33.72;17.42;;;;;;;5.69;77.57;98502.47;5008350;28;20038;-67
2022/12/26 01:53:12;;;;;;;35.35;17.88;;;;;;;5.72;77.59;98483.69;5018182;28;20069;-68
2022/12/26 01:55:39;;;;;;;34.53;18.20;;;;;;;5.77;77.30;98481.00;4997107;28;20541;-68
2022/12/26 01:58:11;;;;;;;35.05;17.63;;;;;;;5.80;77.25;98491.38;5039446;28;20027;-68
2022/12/26 02:00:37;;;;;;;36.03;19.30;;;;;;;5.82;77.44;98486.50;5057990;28;20032;-68
2022/12/26 02:05:53;;;;;;;30.80;16.73;;;;;;;5.86;77.53;98466.91;5036915;28;20126;-68
2022/12/26 02:08:23;;;;;;;28.95;15.07;;;;;;;5.86;77.82;98451.41;5043794;28;20648;-68
2022/12/26 02:11:11;;;;;;;26.25;14.93;;;;;;;5.88;77.95;98437.53;5017827;28;20023;-68
2022/12/26 02:13:37;;;;;;;27.75;13.23;;;;;;;5.91;77.98;98420.66;5022362;28;20030;-67
2022/12/26 02:16:06;;;;;;;24.08;13.70;;;;;;;5.94;77.92;98425.56;5036082;28;20173;-68
2022/12/26 02:18:31;;;;;;;30.20;14.50;;;;;;;5.95;78.01;98427.22;5014968;28;20030;-68
2022/12/26 02:21:03;;;;;;;30.75;16.10;;;;;;;5.93;78.07;98419.28;5037365;28;20037;-67
2022/12/26 02:23:40;;;;;;;29.55;15.02;;;;;;;5.94;78.29;98420.13;5030949;28;20382;-68
2022/12/26 02:26:23;;;;;;;34.85;16.48;;;;;;;5.94;78.27;98431.03;5028852;28;20033;-67
2022/12/26 02:29:00;;;;;;;35.40;18.38;;;;;;;5.93;78.38;98430.19;5033493;28;20486;-67
2022/12/26 02:31:56;;;;;;;30.88;17.08;;;;;;;5.93;77.88;98423.94;5014595;28;20074;-67
2022/12/26 02:34:40;;;;;;;29.60;16.05;;;;;;;5.94;77.90;98420.13;5030278;28;20117;-68
2022/12/26 02:37:44;;;;;;;29.25;16.23;;;;;;;5.93;77.75;98411.13;5030474;28;20037;-67
2022/12/26 02:40:42;;;;;;;30.33;16.58;;;;;;;5.93;78.19;98421.22;5018415;28;20057;-68
2022/12/26 02:43:41;;;;;;;29.55;15.85;;;;;;;5.89;78.47;98420.94;5058917;28;20488;-67
2022/12/26 03:15:25;;;;;;;32.55;17.10;;;;;;;5.96;78.34;98407.06;4997222;28;20057;-67
2022/12/26 03:17:59;;;;;;;34.65;16.23;;;;;;;5.97;78.74;98406.00;5012523;28;20030;-67
2022/12/26 03:20:28;;;;;;;31.17;15.93;;;;;;;6.01;78.39;98409.00;5014963;28;20111;-68
2022/12/26 03:23:08;;;;;;;33.70;14.98;;;;;;;6.04;79.21;98412.03;5031807;28;20045;-67
2022/12/26 03:28:40;;;;;;;21.52;11.45;;;;;;;6.16;78.94;98403.63;5031268;28;20438;-68
2022/12/26 03:31:08;;;;;;;27.88;14.40;;;;;;;6.22;79.40;98418.88;5016254;28;20078;-67
2022/12/26 03:36:42;;;;;;;23.70;11.85;;;;;;;6.36;79.05;98415.63;5002627;28;20825;-68
2022/12/26 04:19:22;;;;;;;23.58;10.75;;;;;;;6.42;79.25;98406.38;5007963;28;20022;-67
2022/12/26 04:20:48;;;;;;;11.73;6.88;;;;;;;7.36;79.68;98372.53;5013978;28;20035;-67
2022/12/26 04:44:05;;;;;;;13.98;7.38;;;;;;;7.50;79.54;98396.50;5008920;28;20816;-67
2022/12/26 04:46:33;;;;;;;10.65;6.90;;;;;;;7.50;79.48;98391.06;5012391;28;20426;-67
2022/12/26 04:51:46;;;;;;;14.60;8.00;;;;;;;7.54;79.57;98392.13;5027782;28;20531;-67
2022/12/26 04:54:11;;;;;;;11.02;6.88;;;;;;;7.54;79.12;98390.22;5008910;28;20050;-67
2022/12/26 04:56:36;;;;;;;14.13;7.70;;;;;;;7.54;79.48;98373.03;5022847;28;20038;-67
2022/12/26 04:59:02;;;;;;;11.63;7.60;;;;;;;7.56;79.55;98373.53;5005595;28;20014;-67
2022/12/26 05:09:50;;;;;;;18.67;9.80;;;;;;;7.56;79.08;98379.00;5027447;28;20265;-67
2022/12/26 05:12:15;;;;;;;12.32;7.35;;;;;;;7.54;79.05;98384.75;5009905;28;20117;-68
2022/12/26 05:14:41;;;;;;;12.82;8.05;;;;;;;7.53;78.81;98383.13;5026357;28;20041;-68
2022/12/26 05:30:59;;;;;;;11.65;6.93;;;;;;;7.55;79.22;98386.38;5011037;28;20073;-67
2022/12/26 05:36:09;;;;;;;14.43;8.10;;;;;;;7.60;79.21;98393.72;5017823;28;20575;-67
2022/12/26 05:38:35;;;;;;;11.55;7.10;;;;;;;7.63;79.03;98411.47;5024679;28;20054;-68
2022/12/26 05:41:01;;;;;;;23.45;11.82;;;;;;;7.65;79.30;98398.38;5043237;28;20035;-67
2022/12/26 05:43:28;;;;;;;18.10;8.98;;;;;;;7.66;79.30;98400.81;5034179;28;20037;-68
2022/12/26 05:45:53;;;;;;;14.45;8.32;;;;;;;7.69;78.78;98413.09;5064916;28;20035;-67
2022/12/26 05:48:18;;;;;;;14.38;8.80;;;;;;;7.69;79.30;98413.91;5056471;28;20377;-67
2022/12/26 05:50:43;;;;;;;13.77;8.30;;;;;;;7.71;79.10;98411.72;5011891;28;20042;-67
2022/12/26 05:53:09;;;;;;;11.57;7.82;;;;;;;7.72;78.75;98407.09;5015676;28;20050;-68
2022/12/26 05:55:34;;;;;;;10.77;7.32;;;;;;;7.74;78.69;98408.44;5011530;28;20027;-67
2022/12/26 05:58:00;;;;;;;9.77;6.93;;;;;;;7.77;79.17;98404.31;5018703;28;20030;-68
2022/12/26 06:00:26;;;;;;;10.35;7.03;;;;;;;7.78;79.20;98400.50;5007955;28;20059;-67
2022/12/26 06:02:51;;;;;;;11.45;7.40;;;;;;;7.78;78.83;98400.50;5007606;28;20027;-67
2022/12/26 06:05:17;;;;;;;12.93;7.70;;;;;;;7.80;78.89;98387.38;5009337;28;20073;-67
2022/12/26 06:07:42;;;;;;;17.50;9.90;;;;;;;7.80;78.74;98384.66;5022477;28;20045;-67
2022/12/26 06:10:09;;;;;;;12.65;7.97;;;;;;;7.77;78.62;98377.00;4999869;28;20053;-67
2022/12/26 06:12:34;;;;;;;12.90;8.45;;;;;;;7.77;78.22;98382.47;5013706;28;20031;-68
2022/12/26 06:15:00;;;;;;;13.15;8.60;;;;;;;7.77;78.39;98395.31;5024632;28;20022;-67
2022/12/26 06:17:26;;;;;;;13.10;8.73;;;;;;;7.77;79.11;98409.78;5010610;28;20029;-67
2022/12/26 06:19:51;;;;;;;11.55;8.10;;;;;;;7.78;78.87;98410.59;4997496;28;20032;-68
2022/12/26 06:22:16;;;;;;;15.35;9.20;;;;;;;7.78;78.95;98408.69;5005915;28;20030;-67
2022/12/26 06:24:42;;;;;;;13.32;8.63;;;;;;;7.80;78.47;98401.03;5047891;28;20074;-67
2022/12/26 06:27:07;;;;;;;28.95;14.85;;;;;;;7.82;78.36;98398.03;5024310;28;20024;-67
2022/12/26 06:29:33;;;;;;;19.63;10.80;;;;;;;7.84;78.62;98395.84;5035959;28;20469;-67
2022/12/26 06:31:58;;;;;;;17.75;10.40;;;;;;;7.84;78.42;98388.44;5053946;28;20024;-68
2022/12/26 06:34:23;;;;;;;18.77;11.32;;;;;;;7.87;78.73;98387.09;5017782;28;20028;-69
2022/12/26 06:36:49;;;;;;;29.38;16.88;;;;;;;7.87;78.36;98382.44;5043939;28;20054;-67
2022/12/26 06:39:14;;;;;;;14.65;9.25;;;;;;;7.88;78.47;98386.78;5014131;28;20035;-68
2022/12/26 06:41:40;;;;;;;25.88;14.20;;;;;;;7.90;78.15;98403.72;5068120;28;20031;-68
2022/12/26 06:44:05;;;;;;;20.15;11.43;;;;;;;7.90;78.00;98411.91;5047752;28;20032;-68
2022/12/26 06:46:30;;;;;;;20.83;12.43;;;;;;;7.94;78.17;98416.81;5038725;28;20082;-68
2022/12/26 06:48:56;;;;;;;27.65;16.80;;;;;;;7.93;78.38;98424.22;5032563;28;20041;-67
2022/12/26 06:51:25;;;;;;;18.63;12.80;;;;;;;7.94;78.42;98425.84;5034121;28;20029;-67
2022/12/26 06:53:52;;;;;;;15.23;10.48;;;;;;;7.95;78.49;98432.09;5056840;28;20265;-67
2022/12/26 06:56:24;;;;;;;14.52;10.23;;;;;;;7.96;77.96;98425.53;5016894;28;20101;-68
2022/12/26 06:58:53;;;;;;;23.27;11.73;;;;;;;7.95;77.99;98421.97;5034584;28;20062;-68
2022/12/26 07:01:19;;;;;;;23.20;12.05;;;;;;;7.96;78.12;98420.09;5041954;28;20084;-68
2022/12/26 07:03:45;;;;;;;22.75;11.00;;;;;;;7.96;78.09;98384.59;5050776;28;20653;-68
2022/12/26 07:06:27;;;;;;;31.45;14.73;;;;;;;7.93;77.72;98383.25;5071581;28;20507;-68
2022/12/26 07:08:56;;;;;;;24.65;14.90;;;;;;;7.93;77.95;98385.97;5034807;28;20026;-68
2022/12/26 07:11:28;;;;;;;28.55;19.08;;;;;;;7.92;78.02;98398.00;5071050;28;20543;-68
2022/12/26 07:13:54;;;;;;;21.42;13.77;;;;;;;7.93;77.61;98420.63;5002980;28;20032;-68
2022/12/26 07:16:20;;;;;;;20.13;12.68;;;;;;;7.92;77.68;98425.31;5013087;28;20023;-68
2022/12/26 07:18:45;;;;;;;17.77;11.07;;;;;;;7.94;77.96;98450.41;5023465;28;20048;-68
2022/12/26 07:21:13;;;;;;;15.88;10.05;;;;;;;7.97;77.70;98458.03;5046864;28;20089;-68
2022/12/26 07:23:39;;;;;;;16.02;10.60;;;;;;;7.98;77.94;98454.19;5031608;28;20470;-68
2022/12/26 07:26:05;;;;;;;14.63;10.10;;;;;;;8.02;77.34;98443.56;5062385;28;20069;-68
2022/12/26 07:28:31;;;;;;;15.57;11.30;;;;;;;8.02;77.81;98438.88;5037301;28;20050;-68
2022/12/26 07:30:58;;;;;;;17.48;11.77;;;;;;;8.04;77.78;98433.97;5058697;28;20060;-68
2022/12/26 07:33:24;;;;;;;15.68;10.65;;;;;;;8.04;77.59;98436.69;5038989;28;20032;-68
2022/12/26 07:35:49;;;;;;;17.05;10.98;;;;;;;8.05;77.77;98432.88;5021838;28;20066;-68
2022/12/26 07:38:15;;;;;;;20.55;14.20;;;;;;;8.07;77.12;98424.41;5040792;28;20032;-68
2022/12/26 07:40:40;;;;;;;18.38;11.93;;;;;;;8.08;77.57;98425.22;5023398;28;20532;-68
2022/12/26 07:43:06;;;;;;;18.20;11.18;;;;;;;8.07;77.28;98429.88;5069373;28;20107;-68
2022/12/26 07:45:31;;;;;;;17.67;11.20;;;;;;;8.08;76.83;98431.50;5016702;28;20026;-68
2022/12/26 07:47:58;;;;;;;15.27;10.05;;;;;;;8.08;77.42;98447.91;5038892;28;20428;-68
2022/12/26 07:50:25;;;;;;;18.15;12.02;;;;;;;8.10;76.79;98444.88;5037912;28;20058;-68
2022/12/26 07:52:50;;;;;;;17.80;12.68;;;;;;;8.10;77.17;98444.88;5034386;28;20479;-68
2022/12/26 07:55:16;;;;;;;17.50;11.25;;;;;;;8.09;77.28;98433.16;5051515;28;20053;-68
2022/12/26 07:57:41;;;;;;;16.58;10.70;;;;;;;8.07;77.43;98442.69;5031082;28;20038;-68
2022/12/26 08:00:07;;;;;;;15.38;10.82;;;;;;;8.08;76.76;98442.44;5020091;28;20022;-68
2022/12/26 08:02:33;;;;;;;15.82;9.90;;;;;;;8.05;77.21;98452.00;5068580;28;20483;-68
2022/12/26 08:04:58;;;;;;;15.48;10.02;;;;;;;8.07;77.30;98443.53;5027860;28;20033;-68
2022/12/26 08:07:24;;;;;;;15.57;10.50;;;;;;;8.08;76.91;98450.63;5030773;28;20103;-68
2022/12/26 08:09:49;;;;;;;15.85;10.48;;;;;;;8.08;77.07;98453.38;5047731;28;20325;-68
2022/12/26 08:12:14;;;;;;;18.02;10.93;;;;;;;8.08;76.92;98461.56;5068578;28;20497;-68
2022/12/26 08:14:40;;;;;;;17.55;12.40;;;;;;;8.09;76.84;98457.72;5018021;28;20730;-68
2022/12/26 08:17:06;;;;;;;19.15;11.50;;;;;;;8.09;77.35;98462.34;5020176;28;20021;-68
2022/12/26 08:19:32;;;;;;;19.98;12.35;;;;;;;8.07;77.38;98465.38;5069862;28;20039;-68
2022/12/26 08:21:57;;;;;;;15.73;10.45;;;;;;;8.08;76.89;98466.19;5037861;28;20044;-68
2022/12/26 08:24:23;;;;;;;16.35;10.60;;;;;;;8.05;76.94;98449.25;5053011;28;20461;-68
2022/12/26 08:26:48;;;;;;;18.00;11.00;;;;;;;8.04;76.62;98447.63;5041308;28;20052;-69
2022/12/26 08:29:13;;;;;;;18.45;11.40;;;;;;;8.02;77.28;98462.66;5042693;28;20447;-69
2022/12/26 08:31:39;;;;;;;17.85;11.80;;;;;;;8.01;76.77;98463.75;4989359;28;20039;-68
2022/12/26 08:34:05;;;;;;;17.02;10.90;;;;;;;8.00;76.93;98465.66;5019280;28;20034;-68
2022/12/26 08:36:30;;;;;;;18.35;12.13;;;;;;;7.98;76.61;98469.78;4992430;28;20034;-68
2022/12/26 08:38:57;;;;;;;17.88;11.25;;;;;;;7.94;77.05;98479.63;5040239;28;20042;-69
2022/12/26 08:41:22;;;;;;;17.27;11.68;;;;;;;7.92;76.89;98465.44;4990092;28;20026;-68
2022/12/26 08:43:50;;;;;;;24.05;14.38;;;;;;;7.88;76.79;98460.53;5035474;28;20042;-68
2022/12/26 08:46:17;;;;;;;23.65;14.68;;;;;;;7.85;77.18;98460.28;4993750;28;20030;-68
2022/12/26 08:48:43;;;;;;;27.60;16.38;;;;;;;7.81;77.34;98470.91;5030587;28;20455;-69
2022/12/26 08:51:16;;;;;;;25.92;14.95;;;;;;;7.80;77.16;98473.94;5014110;28;20076;-70
2022/12/26 08:53:42;;;;;;;19.92;12.35;;;;;;;7.76;77.46;98468.19;5027050;28;20546;-70
2022/12/26 08:56:11;;;;;;;29.25;21.00;;;;;;;7.73;77.55;98475.03;5028272;28;20020;-69
2022/12/26 08:58:37;;;;;;;32.28;18.05;;;;;;;7.71;77.32;98466.31;5026922;28;20052;-70
2022/12/26 09:01:14;;;;;;;37.65;20.67;;;;;;;7.71;77.96;98466.31;5022736;28;20053;-70
2022/12/26 09:03:41;;;;;;;36.83;20.40;;;;;;;7.70;77.71;98464.69;5051538;28;20020;-68
2022/12/26 09:06:07;;;;;;;30.27;18.27;;;;;;;7.69;78.18;98460.31;5045226;28;20020;-68
2022/12/26 09:08:34;;;;;;;28.38;16.63;;;;;;;7.69;78.01;98454.03;5023294;28;20020;-68
2022/12/26 09:11:06;;;;;;;27.58;16.30;;;;;;;7.65;77.91;98463.88;5007608;28;20121;-68
2022/12/26 09:13:33;;;;;;;29.95;18.13;;;;;;;7.65;78.18;98444.78;5012340;28;20423;-68
2022/12/26 09:16:05;;;;;;;30.40;17.40;;;;;;;7.64;78.46;98457.59;5007580;28;20068;-68
2022/12/26 09:18:31;;;;;;;27.75;15.60;;;;;;;7.65;78.25;98461.16;5009601;28;20105;-68
2022/12/26 09:20:59;;;;;;;32.38;17.38;;;;;;;7.66;78.32;98468.25;4995644;28;20604;-68
2022/12/26 09:23:25;;;;;;;29.30;16.20;;;;;;;7.66;78.71;98460.88;5007591;28;20107;-68
2022/12/26 09:25:51;;;;;;;29.95;16.50;;;;;;;7.66;78.26;98465.53;5023524;28;20026;-68
2022/12/26 09:28:16;;;;;;;27.15;15.80;;;;;;;7.66;78.73;98466.31;5005208;28;20042;-69
2022/12/26 09:30:43;;;;;;;31.10;16.90;;;;;;;7.68;78.72;98466.06;5035890;28;20063;-69
2022/12/26 09:33:08;;;;;;;33.60;19.60;;;;;;;7.68;78.69;98460.59;5042930;28;20028;-69
2022/12/26 09:35:34;;;;;;;30.10;17.92;;;;;;;7.70;78.75;98466.59;5038494;28;20035;-69
2022/12/26 09:38:00;;;;;;;29.05;17.73;;;;;;;7.69;78.63;98473.16;5024010;28;20110;-69
2022/12/26 09:40:30;;;;;;;31.98;17.05;;;;;;;7.71;78.94;98482.69;5038694;28;20536;-69
2022/12/26 09:43:37;;;;;;;30.60;16.60;;;;;;;7.71;78.73;98465.50;5045915;28;20045;-69
2022/12/26 09:46:31;;;;;;;34.33;21.23;;;;;;;7.73;78.62;98461.41;5018903;28;20048;-68
2022/12/26 09:49:03;;;;;;;30.10;17.65;;;;;;;7.74;78.47;98473.16;5003823;28;20042;-68
2022/12/26 09:51:31;;;;;;;33.88;19.55;;;;;;;7.77;78.81;98453.44;4998653;28;20034;-68
2022/12/26 09:53:59;;;;;;;32.78;17.40;;;;;;;7.78;79.25;98441.44;5017264;28;20085;-67
2022/12/26 09:56:26;;;;;;;26.77;16.35;;;;;;;7.80;79.23;98452.09;5059699;28;20119;-67
2022/12/26 09:58:56;;;;;;;25.30;15.05;;;;;;;7.83;79.52;98448.81;5014802;28;20030;-68
2022/12/26 10:01:25;;;;;;;25.73;15.05;;;;;;;7.85;79.65;98444.69;5027769;28;20056;-67
2022/12/26 10:03:55;;;;;;;24.05;14.40;;;;;;;7.86;79.39;98446.34;5031269;28;20028;-68
2022/12/26 10:06:22;;;;;;;;;;;;;;;7.90;79.62;98452.88;5035950;28;20020;-68
2022/12/26 10:09:11;;;;;;;36.65;28.20;;;;;;;7.92;79.21;98455.34;5018172;28;20040;-68
2022/12/26 10:11:42;;;;;;;30.85;19.85;;;;;;;7.91;79.25;98450.97;5031421;28;20078;-68
2022/12/26 10:14:17;;;;;;;35.45;21.95;;;;;;;7.93;79.19;98440.59;5031862;28;20570;-68
2022/12/26 10:16:57;;;;;;;35.88;24.85;;;;;;;7.97;79.50;98446.31;5040837;28;20028;-68
2022/12/26 10:19:50;;;;;;;33.13;21.13;;;;;;;7.97;79.57;98444.38;5032189;28;20099;-67
2022/12/26 10:22:31;;;;;;;29.15;19.63;;;;;;;7.99;79.54;98455.84;5031208;28;20024;-68
2022/12/26 10:25:00;;;;;;;28.98;17.55;;;;;;;7.99;79.23;98444.91;5012929;28;20060;-68
2022/12/26 10:27:29;;;;;;;28.60;17.48;;;;;;;8.02;79.65;98449.81;5074583;28;20516;-68
2022/12/26 10:30:03;;;;;;;33.55;18.30;;;;;;;8.05;79.53;98445.72;5005751;28;20497;-67
2022/12/26 10:32:38;;;;;;;31.33;20.08;;;;;;;8.05;79.34;98446.53;5057695;28;20467;-68
2022/12/26 10:35:39;;;;;;;27.85;17.10;;;;;;;8.08;79.39;98452.53;5022763;28;20358;-68
2022/12/26 10:38:34;;;;;;;24.00;14.88;;;;;;;8.09;79.29;98446.81;5003496;28;20049;-67
2022/12/26 10:41:31;;;;;;;25.23;16.33;;;;;;;8.09;79.51;98438.59;5023934;28;20518;-68
2022/12/26 10:43:57;;;;;;;25.25;15.65;;;;;;;8.13;79.33;98441.59;5011994;28;20061;-68
2022/12/26 10:46:48;;;;;;;24.73;13.93;;;;;;;8.16;79.44;98444.56;5035348;28;20034;-67
2022/12/26 10:49:19;;;;;;;25.42;13.95;;;;;;;8.18;79.11;98445.09;5040274;28;20051;-68
2022/12/26 10:51:44;;;;;;;23.23;14.27;;;;;;;8.21;79.59;98443.72;5029235;28;20020;-68
2022/12/26 10:54:17;;;;;;;21.70;13.68;;;;;;;8.21;79.03;98443.72;5012588;28;20096;-67
2022/12/26 10:56:45;;;;;;;25.98;14.20;;;;;;;8.24;79.36;98448.63;5031492;28;20594;-68
2022/12/26 10:59:17;;;;;;;22.05;13.32;;;;;;;8.24;79.39;98454.09;5020458;28;20034;-68
2022/12/26 11:01:46;;;;;;;25.27;13.75;;;;;;;8.26;79.29;98460.09;5015789;28;20427;-68
2022/12/26 11:04:26;;;;;;;26.45;15.35;;;;;;;8.28;79.57;98452.44;5028139;28;20044;-67
2022/12/26 11:06:53;;;;;;;33.63;20.52;;;;;;;8.31;79.11;98445.59;5024023;28;20038;-68
2022/12/26 11:09:44;;;;;;;29.02;17.35;;;;;;;8.32;79.20;98428.09;5041089;28;20034;-68
2022/12/26 11:12:41;;;;;;;28.10;16.65;;;;;;;8.33;79.37;98433.28;5002115;28;20580;-68
2022/12/26 11:15:31;;;;;;;24.67;14.25;;;;;;;8.37;79.13;98422.59;5042285;28;20165;-68
2022/12/26 11:18:18;;;;;;;24.40;14.57;;;;;;;8.40;78.72;98418.47;5012596;28;20039;-68
2022/12/26 11:20:45;;;;;;;26.30;15.05;;;;;;;8.44;79.46;98414.91;5038269;28;20037;-67
2022/12/26 11:23:27;;;;;;;24.25;16.42;;;;;;;8.50;78.78;98415.72;4993032;28;20142;-67
2022/12/26 11:25:57;;;;;;;27.08;14.75;;;;;;;8.53;78.92;98398.75;5015072;28;20030;-68
2022/12/26 11:28:24;;;;;;;24.85;15.25;;;;;;;8.59;78.90;98410.44;5050941;28;20125;-68
2022/12/26 11:30:49;;;;;;;29.70;17.10;;;;;;;8.60;78.91;98407.44;5012863;28;20113;-67
2022/12/26 11:33:23;;;;;;;32.83;20.23;;;;;;;8.63;78.71;98400.59;5058081;28;20019;-69
2022/12/26 11:36:11;;;;;;;35.85;16.63;;;;;;;8.65;78.42;98406.59;5039470;28;20028;-68
2022/12/26 11:38:54;;;;;;;21.00;11.35;;;;;;;8.68;79.02;98403.28;4998840;28;20042;-67
2022/12/26 11:41:38;;;;;;;18.70;11.82;;;;;;;8.70;78.31;98409.28;5021812;28;20079;-67
2022/12/26 11:44:09;;;;;;;17.83;10.27;;;;;;;8.74;78.08;98423.22;4998185;28;20176;-68
2022/12/26 11:46:40;;;;;;;20.15;12.07;;;;;;;8.77;78.80;98408.94;5022583;28;20038;-67
2022/12/26 11:49:16;;;;;;;19.75;13.35;;;;;;;8.81;78.16;98411.94;5057453;28;20386;-67
2022/12/26 11:51:45;;;;;;;24.17;12.93;;;;;;;8.85;77.57;98411.09;5049433;28;20053;-68
2022/12/26 11:54:19;;;;;;;21.25;12.35;;;;;;;8.88;78.52;98406.97;5042258;28;20095;-68
2022/12/26 11:56:46;;;;;;;21.70;11.75;;;;;;;8.93;77.32;98383.13;5031774;28;20058;-68
2022/12/26 11:59:22;;;;;;;24.13;15.40;;;;;;;8.97;78.21;98385.28;5015428;28;20057;-68
2022/12/26 12:02:15;;;;;;;28.70;18.50;;;;;;;9.02;77.51;98374.28;5045491;28;20511;-68
2022/12/26 12:04:42;;;;;;;25.35;15.18;;;;;;;9.07;78.06;98377.78;5018872;28;20563;-68
2022/12/26 12:07:37;;;;;;;20.33;11.38;;;;;;;9.09;77.26;98386.53;5045176;28;20030;-67
2022/12/26 12:10:30;;;;;;;19.38;12.13;;;;;;;9.14;76.79;98388.41;5023771;28;20032;-68
2022/12/26 12:13:04;;;;;;;15.88;11.02;;;;;;;9.16;77.22;98399.06;5001933;28;20494;-67
2022/12/26 12:16:07;;;;;;;15.60;10.85;;;;;;;9.20;77.08;98389.97;5006384;28;20109;-68
2022/12/26 12:18:42;;;;;;;18.80;11.90;;;;;;;9.27;77.24;98400.59;5014850;28;20020;-68
2022/12/26 12:21:33;;;;;;;18.50;11.82;;;;;;;9.29;76.66;98392.91;5009203;28;20033;-67
2022/12/26 12:24:04;;;;;;;18.20;11.32;;;;;;;9.32;76.21;98395.06;5006317;28;20057;-67
2022/12/26 12:26:59;;;;;;;20.50;11.32;;;;;;;9.37;76.82;98397.72;5024036;28;20046;-67
2022/12/26 12:30:01;;;;;;;18.83;11.30;;;;;;;9.44;77.05;98404.78;4998256;28;20038;-67
2022/12/26 12:32:57;;;;;;;18.73;10.73;;;;;;;9.48;76.79;98390.25;5018169;28;20380;-68
2022/12/26 12:35:23;;;;;;;19.15;11.30;;;;;;;9.56;77.02;98402.47;5002776;28;20500;-67
2022/12/26 12:38:03;;;;;;;18.88;11.13;;;;;;;9.60;77.24;98409.00;4998368;28;20026;-67
2022/12/26 12:40:46;;;;;;;15.25;10.05;;;;;;;9.66;76.33;98407.00;5028872;28;20475;-67
2022/12/26 12:43:49;;;;;;;14.85;9.13;;;;;;;9.68;76.54;98385.63;5034838;28;20054;-67
2022/12/26 12:46:52;;;;;;;17.13;9.40;;;;;;;9.71;75.91;98387.78;5074194;28;20147;-67
2022/12/26 12:49:42;;;;;;;19.60;11.68;;;;;;;9.74;75.75;98389.16;5042919;28;20381;-67
2022/12/26 12:52:10;;;;;;;;;;;;;;;9.77;75.57;98397.56;5032243;28;20034;-66
2022/12/26 12:55:06;;;;;;;28.55;15.30;;;;;;;9.80;75.37;98402.47;5021374;28;19948;-66
2022/12/26 12:57:40;;;;;;;28.73;16.25;;;;;;;9.86;75.45;98408.69;5000839;28;20123;-66
2022/12/26 13:00:18;;;;;;;18.63;10.18;;;;;;;9.87;75.92;98393.88;5040249;28;20032;-66
2022/12/26 13:02:55;;;;;;;15.38;9.80;;;;;;;9.89;75.19;98396.34;5020182;28;20239;-67
2022/12/26 13:05:51;;;;;;;21.60;11.95;;;;;;;9.90;75.37;98393.31;5020574;28;20034;-67
2022/12/26 13:08:28;;;;;;;18.00;11.20;;;;;;;9.94;74.79;98391.63;5029488;28;20053;-66
2022/12/26 13:11:00;;;;;;;14.68;9.20;;;;;;;9.94;75.39;98386.13;5002851;28;20020;-66
2022/12/26 13:13:48;;;;;;;14.18;8.55;;;;;;;9.95;74.97;98379.53;5024608;28;20027;-67
2022/12/26 13:16:25;;;;;;;15.05;8.77;;;;;;;9.97;75.51;98373.78;5031907;28;20035;-69
2022/12/26 13:19:26;;;;;;;16.08;9.38;;;;;;;9.97;75.04;98369.13;5006130;28;20038;-68
2022/12/26 13:21:56;;;;;;;26.25;13.80;;;;;;;9.99;75.41;98357.84;5028499;28;20028;-68
2022/12/26 13:24:44;;;;;;;18.95;11.00;;;;;;;10.01;74.42;98357.56;5023208;28;20073;-68
2022/12/26 13:27:21;;;;;;;18.95;11.70;;;;;;;10.00;73.70;98353.19;5023894;28;20030;-69
2022/12/26 13:29:47;;;;;;;16.00;9.02;;;;;;;10.00;74.36;98359.47;5000301;28;20038;-69
2022/12/26 13:32:28;;;;;;;16.88;9.30;;;;;;;10.00;73.46;98364.16;4996158;28;20046;-69
2022/12/26 13:34:56;;;;;;;15.38;9.05;;;;;;;10.00;73.99;98377.84;4994945;28;20041;-69
2022/12/26 13:37:52;;;;;;;13.05;8.13;;;;;;;9.99;73.75;98374.28;4998383;28;20034;-69
2022/12/26 13:40:20;;;;;;;14.55;8.73;;;;;;;10.02;73.96;98375.63;4990389;28;20057;-69
2022/12/26 13:45:41;;;;;;;;;;;;;;;10.02;74.27;98375.63;4996719;28;20095;-70
2022/12/26 13:48:16;;;;;;;28.85;14.15;;;;;;;10.03;73.26;98374.53;4997059;28;19921;-72
2022/12/26 13:50:58;;;;;;;22.35;12.52;;;;;;;10.01;73.06;98365.78;5001314;28;20091;-70
2022/12/26 13:53:24;;;;;;;19.23;10.07;;;;;;;10.00;73.42;98364.94;4999679;28;20058;-70
2022/12/26 13:56:01;;;;;;;20.23;10.82;;;;;;;10.00;73.50;98361.41;4995248;28;20102;-69
2022/12/26 13:58:48;;;;;;;14.88;9.75;;;;;;;9.97;73.24;98363.63;4995795;28;20089;-69